sensor_id;sensor_type;location;lat;lon;timestamp;temperature;humidity
75799;DHT22;70422;44.692;37.768;2023-06-19T00:00:17;30.16;46.11
75799;DHT22;70422;44.692;37.768;2023-06-19T00:01:21;30.15;46.15
75799;DHT22;70422;44.692;37.768;2023-06-19T00:02:23;30.13;46.15
75799;DHT22;70422;44.692;37.768;2023-06-19T00:03:24;30.15;46.17
75799;DHT22;70422;44.692;37.768;2023-06-19T00:04:26;30.15;46.15
75799;DHT22;70422;44.692;37.768;2023-06-19T00:05:28;30.13;46.23
75799;DHT22;70422;44.692;37.768;2023-06-19T00:06:30;30.15;46.22
75799;DHT22;70422;44.692;37.768;2023-06-19T00:07:31;30.15;46.18
75799;DHT22;70422;44.692;37.768;2023-06-19T00:08:33;30.15;46.22
75799;DHT22;70422;44.692;37.768;2023-06-19T00:09:35;30.12;46.25
75799;DHT22;70422;44.692;37.768;2023-06-19T00:10:37;30.15;46.23
75799;DHT22;70422;44.692;37.768;2023-06-19T00:11:39;30.12;46.20
75799;DHT22;70422;44.692;37.768;2023-06-19T00:12:40;30.13;46.21
75799;DHT22;70422;44.692;37.768;2023-06-19T00:13:42;30.15;46.21
75799;DHT22;70422;44.692;37.768;2023-06-19T00:14:44;30.13;46.24
75799;DHT22;70422;44.692;37.768;2023-06-19T00:15:46;30.12;46.22
75799;DHT22;70422;44.692;37.768;2023-06-19T00:16:51;30.15;46.19
75799;DHT22;70422;44.692;37.768;2023-06-19T00:17:53;30.15;46.22
75799;DHT22;70422;44.692;37.768;2023-06-19T00:18:55;30.13;46.20
75799;DHT22;70422;44.692;37.768;2023-06-19T00:19:59;30.15;46.26
75799;DHT22;70422;44.692;37.768;2023-06-19T00:21:01;30.15;46.31
75799;DHT22;70422;44.692;37.768;2023-06-19T00:22:04;30.13;46.30
75799;DHT22;70422;44.692;37.768;2023-06-19T00:23:06;30.15;46.32
75799;DHT22;70422;44.692;37.768;2023-06-19T00:24:12;30.13;46.37
75799;DHT22;70422;44.692;37.768;2023-06-19T00:25:13;30.16;46.40
75799;DHT22;70422;44.692;37.768;2023-06-19T00:26:15;30.15;46.44
75799;DHT22;70422;44.692;37.768;2023-06-19T00:27:17;30.15;46.48
75799;DHT22;70422;44.692;37.768;2023-06-19T00:28:19;30.15;46.44
75799;DHT22;70422;44.692;37.768;2023-06-19T00:29:22;30.15;46.55
75799;DHT22;70422;44.692;37.768;2023-06-19T00:30:29;30.15;46.55
75799;DHT22;70422;44.692;37.768;2023-06-19T00:31:34;30.16;46.56
75799;DHT22;70422;44.692;37.768;2023-06-19T00:32:38;30.16;46.56
75799;DHT22;70422;44.692;37.768;2023-06-19T00:33:47;30.16;46.64
75799;DHT22;70422;44.692;37.768;2023-06-19T00:34:49;30.16;46.71
75799;DHT22;70422;44.692;37.768;2023-06-19T00:35:51;30.16;46.73
75799;DHT22;70422;44.692;37.768;2023-06-19T00:36:53;30.16;46.72
75799;DHT22;70422;44.692;37.768;2023-06-19T00:37:58;30.16;46.73
75799;DHT22;70422;44.692;37.768;2023-06-19T00:39:03;30.16;46.77
75799;DHT22;70422;44.692;37.768;2023-06-19T00:40:07;30.17;46.73
75799;DHT22;70422;44.692;37.768;2023-06-19T00:41:12;30.16;46.77
75799;DHT22;70422;44.692;37.768;2023-06-19T00:42:13;30.16;46.76
75799;DHT22;70422;44.692;37.768;2023-06-19T00:43:15;30.15;46.79
75799;DHT22;70422;44.692;37.768;2023-06-19T00:44:17;30.16;46.76
75799;DHT22;70422;44.692;37.768;2023-06-19T00:45:19;30.17;46.74
75799;DHT22;70422;44.692;37.768;2023-06-19T00:46:20;30.16;46.80
75799;DHT22;70422;44.692;37.768;2023-06-19T00:47:22;30.18;46.86
75799;DHT22;70422;44.692;37.768;2023-06-19T00:48:29;30.17;46.80
75799;DHT22;70422;44.692;37.768;2023-06-19T00:49:31;30.17;46.83
75799;DHT22;70422;44.692;37.768;2023-06-19T00:50:33;30.16;46.79
75799;DHT22;70422;44.692;37.768;2023-06-19T00:51:38;30.17;46.80
75799;DHT22;70422;44.692;37.768;2023-06-19T00:52:39;30.17;46.91
75799;DHT22;70422;44.692;37.768;2023-06-19T00:53:41;30.17;46.96
75799;DHT22;70422;44.692;37.768;2023-06-19T00:54:43;30.16;46.97
75799;DHT22;70422;44.692;37.768;2023-06-19T00:55:47;30.17;46.91
75799;DHT22;70422;44.692;37.768;2023-06-19T00:56:49;30.17;46.94
75799;DHT22;70422;44.692;37.768;2023-06-19T00:57:52;30.17;46.96
75799;DHT22;70422;44.692;37.768;2023-06-19T00:58:54;30.17;46.98
75799;DHT22;70422;44.692;37.768;2023-06-19T00:59:57;30.17;47.05
75799;DHT22;70422;44.692;37.768;2023-06-19T01:00:59;30.16;47.15
75799;DHT22;70422;44.692;37.768;2023-06-19T01:02:04;30.17;47.11
75799;DHT22;70422;44.692;37.768;2023-06-19T01:03:06;30.17;47.12
75799;DHT22;70422;44.692;37.768;2023-06-19T01:04:07;30.16;47.15
75799;DHT22;70422;44.692;37.768;2023-06-19T01:05:09;30.16;47.11
75799;DHT22;70422;44.692;37.768;2023-06-19T01:06:15;30.16;47.10
75799;DHT22;70422;44.692;37.768;2023-06-19T01:07:26;30.17;47.11
75799;DHT22;70422;44.692;37.768;2023-06-19T01:08:54;30.16;47.12
75799;DHT22;70422;44.692;37.768;2023-06-19T01:10:04;30.15;47.15
75799;DHT22;70422;44.692;37.768;2023-06-19T01:11:07;30.17;47.18
75799;DHT22;70422;44.692;37.768;2023-06-19T01:12:18;30.17;47.15
75799;DHT22;70422;44.692;37.768;2023-06-19T01:13:37;30.16;47.15
75799;DHT22;70422;44.692;37.768;2023-06-19T01:14:51;30.16;47.10
75799;DHT22;70422;44.692;37.768;2023-06-19T01:15:56;30.17;47.17
75799;DHT22;70422;44.692;37.768;2023-06-19T01:16:59;30.18;47.18
75799;DHT22;70422;44.692;37.768;2023-06-19T01:18:02;30.17;47.15
75799;DHT22;70422;44.692;37.768;2023-06-19T01:19:04;30.17;47.16
75799;DHT22;70422;44.692;37.768;2023-06-19T01:20:08;30.17;47.18
75799;DHT22;70422;44.692;37.768;2023-06-19T01:21:18;30.17;47.12
75799;DHT22;70422;44.692;37.768;2023-06-19T01:22:29;30.17;47.17
75799;DHT22;70422;44.692;37.768;2023-06-19T01:23:36;30.18;47.18
75799;DHT22;70422;44.692;37.768;2023-06-19T01:24:37;30.18;47.18
75799;DHT22;70422;44.692;37.768;2023-06-19T01:25:39;30.18;47.18
75799;DHT22;70422;44.692;37.768;2023-06-19T01:26:41;30.19;47.21
75799;DHT22;70422;44.692;37.768;2023-06-19T01:27:47;30.19;47.21
75799;DHT22;70422;44.692;37.768;2023-06-19T01:28:49;30.17;47.19
75799;DHT22;70422;44.692;37.768;2023-06-19T01:29:51;30.18;47.20
75799;DHT22;70422;44.692;37.768;2023-06-19T01:30:58;30.18;47.18
75799;DHT22;70422;44.692;37.768;2023-06-19T01:32:17;30.19;47.21
75799;DHT22;70422;44.692;37.768;2023-06-19T01:33:25;30.19;47.13
75799;DHT22;70422;44.692;37.768;2023-06-19T01:34:29;30.19;47.16
75799;DHT22;70422;44.692;37.768;2023-06-19T01:35:35;30.19;47.22
75799;DHT22;70422;44.692;37.768;2023-06-19T01:36:38;30.19;47.21
75799;DHT22;70422;44.692;37.768;2023-06-19T01:37:41;30.20;47.19
75799;DHT22;70422;44.692;37.768;2023-06-19T01:38:43;30.21;47.18
75799;DHT22;70422;44.692;37.768;2023-06-19T01:39:45;30.22;47.19
75799;DHT22;70422;44.692;37.768;2023-06-19T01:40:48;30.19;47.22
75799;DHT22;70422;44.692;37.768;2023-06-19T01:41:53;30.21;47.19
75799;DHT22;70422;44.692;37.768;2023-06-19T01:42:55;30.20;47.16
75799;DHT22;70422;44.692;37.768;2023-06-19T01:43:59;30.20;47.15
75799;DHT22;70422;44.692;37.768;2023-06-19T01:45:01;30.21;47.18
75799;DHT22;70422;44.692;37.768;2023-06-19T01:46:07;30.22;47.23
75799;DHT22;70422;44.692;37.768;2023-06-19T01:47:11;30.20;47.18
75799;DHT22;70422;44.692;37.768;2023-06-19T01:48:14;30.21;47.16
75799;DHT22;70422;44.692;37.768;2023-06-19T01:49:16;30.22;47.15
75799;DHT22;70422;44.692;37.768;2023-06-19T01:50:24;30.23;47.12
75799;DHT22;70422;44.692;37.768;2023-06-19T01:51:26;30.21;47.12
75799;DHT22;70422;44.692;37.768;2023-06-19T01:52:28;30.21;47.09
75799;DHT22;70422;44.692;37.768;2023-06-19T01:53:33;30.22;47.13
75799;DHT22;70422;44.692;37.768;2023-06-19T01:54:38;30.22;47.14
75799;DHT22;70422;44.692;37.768;2023-06-19T01:55:39;30.23;47.11
75799;DHT22;70422;44.692;37.768;2023-06-19T01:56:41;30.23;47.06
75799;DHT22;70422;44.692;37.768;2023-06-19T01:57:43;30.23;47.04
75799;DHT22;70422;44.692;37.768;2023-06-19T01:58:47;30.24;47.06
75799;DHT22;70422;44.692;37.768;2023-06-19T01:59:49;30.25;47.05
75799;DHT22;70422;44.692;37.768;2023-06-19T02:00:51;30.25;47.06
75799;DHT22;70422;44.692;37.768;2023-06-19T02:01:53;30.24;47.07
75799;DHT22;70422;44.692;37.768;2023-06-19T02:02:54;30.25;47.08
75799;DHT22;70422;44.692;37.768;2023-06-19T02:03:56;30.25;47.02
75799;DHT22;70422;44.692;37.768;2023-06-19T02:04:58;30.25;47.02
75799;DHT22;70422;44.692;37.768;2023-06-19T02:05:59;30.26;47.05
75799;DHT22;70422;44.692;37.768;2023-06-19T02:07:02;30.26;47.04
75799;DHT22;70422;44.692;37.768;2023-06-19T02:08:04;30.26;47.02
75799;DHT22;70422;44.692;37.768;2023-06-19T02:09:10;30.27;46.93
75799;DHT22;70422;44.692;37.768;2023-06-19T02:10:13;30.27;46.91
75799;DHT22;70422;44.692;37.768;2023-06-19T02:11:15;30.28;46.92
75799;DHT22;70422;44.692;37.768;2023-06-19T02:12:17;30.28;46.96
75799;DHT22;70422;44.692;37.768;2023-06-19T02:13:19;30.28;46.96
75799;DHT22;70422;44.692;37.768;2023-06-19T02:14:20;30.28;46.93
75799;DHT22;70422;44.692;37.768;2023-06-19T02:15:25;30.30;46.93
75799;DHT22;70422;44.692;37.768;2023-06-19T02:16:27;30.31;46.94
75799;DHT22;70422;44.692;37.768;2023-06-19T02:17:30;30.30;46.92
75799;DHT22;70422;44.692;37.768;2023-06-19T02:18:32;30.30;46.93
75799;DHT22;70422;44.692;37.768;2023-06-19T02:19:34;30.31;46.93
75799;DHT22;70422;44.692;37.768;2023-06-19T02:20:36;30.32;46.93
75799;DHT22;70422;44.692;37.768;2023-06-19T02:21:38;30.32;46.94
75799;DHT22;70422;44.692;37.768;2023-06-19T02:22:41;30.31;46.96
75799;DHT22;70422;44.692;37.768;2023-06-19T02:23:42;30.31;47.02
75799;DHT22;70422;44.692;37.768;2023-06-19T02:24:44;30.32;46.96
75799;DHT22;70422;44.692;37.768;2023-06-19T02:25:48;30.32;47.00
75799;DHT22;70422;44.692;37.768;2023-06-19T02:26:53;30.31;46.97
75799;DHT22;70422;44.692;37.768;2023-06-19T02:27:54;30.32;47.02
75799;DHT22;70422;44.692;37.768;2023-06-19T02:28:56;30.33;46.99
75799;DHT22;70422;44.692;37.768;2023-06-19T02:29:58;30.32;46.99
75799;DHT22;70422;44.692;37.768;2023-06-19T02:31:00;30.32;47.02
75799;DHT22;70422;44.692;37.768;2023-06-19T02:32:02;30.32;47.01
75799;DHT22;70422;44.692;37.768;2023-06-19T02:33:04;30.33;47.02
75799;DHT22;70422;44.692;37.768;2023-06-19T02:34:06;30.33;47.02
75799;DHT22;70422;44.692;37.768;2023-06-19T02:35:10;30.33;47.07
75799;DHT22;70422;44.692;37.768;2023-06-19T02:36:12;30.35;47.01
75799;DHT22;70422;44.692;37.768;2023-06-19T02:37:15;30.35;46.99
75799;DHT22;70422;44.692;37.768;2023-06-19T02:38:16;30.34;47.05
75799;DHT22;70422;44.692;37.768;2023-06-19T02:39:24;30.33;47.03
75799;DHT22;70422;44.692;37.768;2023-06-19T02:40:25;30.35;47.08
75799;DHT22;70422;44.692;37.768;2023-06-19T02:41:29;30.33;47.04
75799;DHT22;70422;44.692;37.768;2023-06-19T02:42:31;30.35;47.07
75799;DHT22;70422;44.692;37.768;2023-06-19T02:43:32;30.35;47.09
75799;DHT22;70422;44.692;37.768;2023-06-19T02:44:34;30.35;47.11
75799;DHT22;70422;44.692;37.768;2023-06-19T02:45:37;30.35;47.07
75799;DHT22;70422;44.692;37.768;2023-06-19T02:46:39;30.36;47.09
75799;DHT22;70422;44.692;37.768;2023-06-19T02:47:40;30.36;47.09
75799;DHT22;70422;44.692;37.768;2023-06-19T02:48:42;30.35;47.12
75799;DHT22;70422;44.692;37.768;2023-06-19T02:49:44;30.35;47.13
75799;DHT22;70422;44.692;37.768;2023-06-19T02:50:46;30.35;47.11
75799;DHT22;70422;44.692;37.768;2023-06-19T02:51:48;30.35;47.09
75799;DHT22;70422;44.692;37.768;2023-06-19T02:52:49;30.37;47.12
75799;DHT22;70422;44.692;37.768;2023-06-19T02:53:51;30.37;47.10
75799;DHT22;70422;44.692;37.768;2023-06-19T02:54:53;30.36;47.12
75799;DHT22;70422;44.692;37.768;2023-06-19T02:55:55;30.37;47.12
75799;DHT22;70422;44.692;37.768;2023-06-19T02:56:57;30.36;47.09
75799;DHT22;70422;44.692;37.768;2023-06-19T02:57:58;30.37;47.17
75799;DHT22;70422;44.692;37.768;2023-06-19T02:59:01;30.38;47.15
75799;DHT22;70422;44.692;37.768;2023-06-19T03:00:05;30.37;47.14
75799;DHT22;70422;44.692;37.768;2023-06-19T03:01:11;30.37;47.14
75799;DHT22;70422;44.692;37.768;2023-06-19T03:02:13;30.38;47.17
75799;DHT22;70422;44.692;37.768;2023-06-19T03:03:16;30.38;47.12
75799;DHT22;70422;44.692;37.768;2023-06-19T03:04:18;30.36;45.65
75799;DHT22;70422;44.692;37.768;2023-06-19T03:05:20;30.35;43.93
75799;DHT22;70422;44.692;37.768;2023-06-19T03:06:22;30.27;43.10
75799;DHT22;70422;44.692;37.768;2023-06-19T03:07:24;30.22;42.32
75799;DHT22;70422;44.692;37.768;2023-06-19T03:08:30;30.13;41.30
75799;DHT22;70422;44.692;37.768;2023-06-19T03:09:32;30.07;40.59
75799;DHT22;70422;44.692;37.768;2023-06-19T03:10:34;29.98;39.87
75799;DHT22;70422;44.692;37.768;2023-06-19T03:11:37;29.90;39.84
75799;DHT22;70422;44.692;37.768;2023-06-19T03:12:39;29.85;39.10
75799;DHT22;70422;44.692;37.768;2023-06-19T03:13:50;29.76;38.62
75799;DHT22;70422;44.692;37.768;2023-06-19T03:14:53;29.71;38.24
75799;DHT22;70422;44.692;37.768;2023-06-19T03:15:55;29.64;37.89
75799;DHT22;70422;44.692;37.768;2023-06-19T03:16:56;29.60;37.80
75799;DHT22;70422;44.692;37.768;2023-06-19T03:17:58;29.53;37.12
75799;DHT22;70422;44.692;37.768;2023-06-19T03:19:01;29.46;37.18
75799;DHT22;70422;44.692;37.768;2023-06-19T03:20:03;29.43;37.06
75799;DHT22;70422;44.692;37.768;2023-06-19T03:21:07;29.37;36.57
75799;DHT22;70422;44.692;37.768;2023-06-19T03:22:09;29.32;36.60
75799;DHT22;70422;44.692;37.768;2023-06-19T03:23:13;29.29;35.97
75799;DHT22;70422;44.692;37.768;2023-06-19T03:24:15;29.23;35.76
75799;DHT22;70422;44.692;37.768;2023-06-19T03:25:18;29.19;35.66
75799;DHT22;70422;44.692;37.768;2023-06-19T03:26:24;29.15;35.38
75799;DHT22;70422;44.692;37.768;2023-06-19T03:27:33;29.08;35.63
75799;DHT22;70422;44.692;37.768;2023-06-19T03:28:36;29.05;35.24
75799;DHT22;70422;44.692;37.768;2023-06-19T03:29:38;29.02;35.08
75799;DHT22;70422;44.692;37.768;2023-06-19T03:30:42;28.99;34.69
75799;DHT22;70422;44.692;37.768;2023-06-19T03:31:44;28.95;34.68
75799;DHT22;70422;44.692;37.768;2023-06-19T03:32:46;28.91;34.41
75799;DHT22;70422;44.692;37.768;2023-06-19T03:33:59;28.90;34.36
75799;DHT22;70422;44.692;37.768;2023-06-19T03:35:02;28.88;34.32
75799;DHT22;70422;44.692;37.768;2023-06-19T03:36:05;28.86;34.54
75799;DHT22;70422;44.692;37.768;2023-06-19T03:37:22;28.88;36.22
75799;DHT22;70422;44.692;37.768;2023-06-19T03:38:24;28.90;37.41
75799;DHT22;70422;44.692;37.768;2023-06-19T03:39:27;28.88;36.18
75799;DHT22;70422;44.692;37.768;2023-06-19T03:40:35;28.82;35.79
75799;DHT22;70422;44.692;37.768;2023-06-19T03:41:42;28.79;35.74
75799;DHT22;70422;44.692;37.768;2023-06-19T03:42:44;28.72;35.29
75799;DHT22;70422;44.692;37.768;2023-06-19T03:43:47;28.68;35.23
75799;DHT22;70422;44.692;37.768;2023-06-19T03:44:49;28.62;35.28
75799;DHT22;70422;44.692;37.768;2023-06-19T03:45:52;28.58;35.02
75799;DHT22;70422;44.692;37.768;2023-06-19T03:46:53;28.50;35.53
75799;DHT22;70422;44.692;37.768;2023-06-19T03:47:55;28.45;35.41
75799;DHT22;70422;44.692;37.768;2023-06-19T03:48:57;28.43;35.37
75799;DHT22;70422;44.692;37.768;2023-06-19T03:49:59;28.38;35.23
75799;DHT22;70422;44.692;37.768;2023-06-19T03:51:00;28.37;35.15
75799;DHT22;70422;44.692;37.768;2023-06-19T03:52:04;28.32;34.73
75799;DHT22;70422;44.692;37.768;2023-06-19T03:53:06;28.30;35.08
75799;DHT22;70422;44.692;37.768;2023-06-19T03:54:07;28.25;34.91
75799;DHT22;70422;44.692;37.768;2023-06-19T03:55:09;28.23;35.02
75799;DHT22;70422;44.692;37.768;2023-06-19T03:56:11;28.19;34.89
75799;DHT22;70422;44.692;37.768;2023-06-19T03:57:12;28.20;35.17
75799;DHT22;70422;44.692;37.768;2023-06-19T03:58:14;28.17;35.18
75799;DHT22;70422;44.692;37.768;2023-06-19T03:59:17;28.17;35.15
75799;DHT22;70422;44.692;37.768;2023-06-19T04:00:19;28.18;35.32
75799;DHT22;70422;44.692;37.768;2023-06-19T04:01:24;28.19;36.63
75799;DHT22;70422;44.692;37.768;2023-06-19T04:02:25;28.21;37.64
75799;DHT22;70422;44.692;37.768;2023-06-19T04:03:27;28.23;36.75
75799;DHT22;70422;44.692;37.768;2023-06-19T04:04:29;28.20;36.06
75799;DHT22;70422;44.692;37.768;2023-06-19T04:05:31;28.17;35.61
75799;DHT22;70422;44.692;37.768;2023-06-19T04:06:33;28.14;35.51
75799;DHT22;70422;44.692;37.768;2023-06-19T04:07:35;28.14;35.26
75799;DHT22;70422;44.692;37.768;2023-06-19T04:08:38;28.10;34.88
75799;DHT22;70422;44.692;37.768;2023-06-19T04:09:39;28.06;34.67
75799;DHT22;70422;44.692;37.768;2023-06-19T04:10:41;28.04;34.44
75799;DHT22;70422;44.692;37.768;2023-06-19T04:11:43;28.03;34.21
75799;DHT22;70422;44.692;37.768;2023-06-19T04:12:45;27.99;34.10
75799;DHT22;70422;44.692;37.768;2023-06-19T04:13:47;27.96;33.93
75799;DHT22;70422;44.692;37.768;2023-06-19T04:14:49;27.94;33.86
75799;DHT22;70422;44.692;37.768;2023-06-19T04:15:51;27.90;33.60
75799;DHT22;70422;44.692;37.768;2023-06-19T04:16:53;27.89;33.66
75799;DHT22;70422;44.692;37.768;2023-06-19T04:17:55;27.89;35.22
75799;DHT22;70422;44.692;37.768;2023-06-19T04:18:57;27.93;36.43
75799;DHT22;70422;44.692;37.768;2023-06-19T04:19:58;27.95;37.46
75799;DHT22;70422;44.692;37.768;2023-06-19T04:21:00;27.95;36.35
75799;DHT22;70422;44.692;37.768;2023-06-19T04:22:02;27.94;35.72
75799;DHT22;70422;44.692;37.768;2023-06-19T04:23:04;27.89;35.30
75799;DHT22;70422;44.692;37.768;2023-06-19T04:24:06;27.88;35.05
75799;DHT22;70422;44.692;37.768;2023-06-19T04:25:11;27.86;34.66
75799;DHT22;70422;44.692;37.768;2023-06-19T04:26:13;27.82;34.30
75799;DHT22;70422;44.692;37.768;2023-06-19T04:27:14;27.80;34.23
75799;DHT22;70422;44.692;37.768;2023-06-19T04:28:16;27.78;33.79
75799;DHT22;70422;44.692;37.768;2023-06-19T04:29:18;27.76;33.50
75799;DHT22;70422;44.692;37.768;2023-06-19T04:30:20;27.75;33.09
75799;DHT22;70422;44.692;37.768;2023-06-19T04:31:24;27.74;32.85
75799;DHT22;70422;44.692;37.768;2023-06-19T04:32:27;27.73;32.36
75799;DHT22;70422;44.692;37.768;2023-06-19T04:33:29;27.73;32.32
75799;DHT22;70422;44.692;37.768;2023-06-19T04:34:31;27.71;32.02
75799;DHT22;70422;44.692;37.768;2023-06-19T04:35:33;27.70;31.62
75799;DHT22;70422;44.692;37.768;2023-06-19T04:36:36;27.69;31.32
75799;DHT22;70422;44.692;37.768;2023-06-19T04:37:38;27.69;31.33
75799;DHT22;70422;44.692;37.768;2023-06-19T04:38:40;27.68;31.38
75799;DHT22;70422;44.692;37.768;2023-06-19T04:39:42;27.67;31.84
75799;DHT22;70422;44.692;37.768;2023-06-19T04:40:43;27.68;32.75
75799;DHT22;70422;44.692;37.768;2023-06-19T04:41:45;27.70;33.91
75799;DHT22;70422;44.692;37.768;2023-06-19T04:42:47;27.71;35.49
75799;DHT22;70422;44.692;37.768;2023-06-19T04:43:49;27.72;34.73
75799;DHT22;70422;44.692;37.768;2023-06-19T04:44:51;27.70;34.38
75799;DHT22;70422;44.692;37.768;2023-06-19T04:45:53;27.69;33.99
75799;DHT22;70422;44.692;37.768;2023-06-19T04:46:54;27.66;33.84
75799;DHT22;70422;44.692;37.768;2023-06-19T04:48:02;27.65;33.71
75799;DHT22;70422;44.692;37.768;2023-06-19T04:49:05;27.60;33.50
75799;DHT22;70422;44.692;37.768;2023-06-19T04:50:07;27.60;33.26
75799;DHT22;70422;44.692;37.768;2023-06-19T04:51:09;27.57;33.09
75799;DHT22;70422;44.692;37.768;2023-06-19T04:52:11;27.56;33.12
75799;DHT22;70422;44.692;37.768;2023-06-19T04:53:13;27.55;32.89
75799;DHT22;70422;44.692;37.768;2023-06-19T04:54:14;27.55;32.77
75799;DHT22;70422;44.692;37.768;2023-06-19T04:55:16;27.53;32.50
75799;DHT22;70422;44.692;37.768;2023-06-19T04:56:18;27.53;32.50
75799;DHT22;70422;44.692;37.768;2023-06-19T04:57:20;27.53;32.48
75799;DHT22;70422;44.692;37.768;2023-06-19T04:58:22;27.53;32.41
75799;DHT22;70422;44.692;37.768;2023-06-19T04:59:24;27.52;33.50
75799;DHT22;70422;44.692;37.768;2023-06-19T05:00:26;27.53;33.40
75799;DHT22;70422;44.692;37.768;2023-06-19T05:01:28;27.54;33.51
75799;DHT22;70422;44.692;37.768;2023-06-19T05:02:30;27.53;33.56
75799;DHT22;70422;44.692;37.768;2023-06-19T05:03:32;27.56;33.57
75799;DHT22;70422;44.692;37.768;2023-06-19T05:04:33;27.56;33.42
75799;DHT22;70422;44.692;37.768;2023-06-19T05:05:35;27.57;33.49
75799;DHT22;70422;44.692;37.768;2023-06-19T05:06:37;27.58;34.10
75799;DHT22;70422;44.692;37.768;2023-06-19T05:07:42;27.59;34.12
75799;DHT22;70422;44.692;37.768;2023-06-19T05:08:43;27.59;34.27
75799;DHT22;70422;44.692;37.768;2023-06-19T05:09:45;27.61;34.35
75799;DHT22;70422;44.692;37.768;2023-06-19T05:10:47;27.61;34.66
75799;DHT22;70422;44.692;37.768;2023-06-19T05:11:49;27.65;35.84
75799;DHT22;70422;44.692;37.768;2023-06-19T05:12:51;27.65;37.07
75799;DHT22;70422;44.692;37.768;2023-06-19T05:13:52;27.68;37.40
75799;DHT22;70422;44.692;37.768;2023-06-19T05:14:54;27.72;36.58
75799;DHT22;70422;44.692;37.768;2023-06-19T05:15:56;27.72;36.53
75799;DHT22;70422;44.692;37.768;2023-06-19T05:16:58;27.73;36.34
75799;DHT22;70422;44.692;37.768;2023-06-19T05:17:59;27.72;36.11
75799;DHT22;70422;44.692;37.768;2023-06-19T05:19:01;27.74;35.89
75799;DHT22;70422;44.692;37.768;2023-06-19T05:20:04;27.74;35.93
75799;DHT22;70422;44.692;37.768;2023-06-19T05:21:25;27.76;35.47
75799;DHT22;70422;44.692;37.768;2023-06-19T05:22:26;27.75;35.40
75799;DHT22;70422;44.692;37.768;2023-06-19T05:23:28;27.78;35.72
75799;DHT22;70422;44.692;37.768;2023-06-19T05:24:48;27.78;35.87
75799;DHT22;70422;44.692;37.768;2023-06-19T05:25:50;27.78;35.90
75799;DHT22;70422;44.692;37.768;2023-06-19T05:26:52;27.79;35.57
75799;DHT22;70422;44.692;37.768;2023-06-19T05:27:54;27.81;35.45
75799;DHT22;70422;44.692;37.768;2023-06-19T05:28:56;27.80;35.54
75799;DHT22;70422;44.692;37.768;2023-06-19T05:29:58;27.81;35.82
75799;DHT22;70422;44.692;37.768;2023-06-19T05:30:59;27.80;35.64
75799;DHT22;70422;44.692;37.768;2023-06-19T05:32:01;27.84;35.48
75799;DHT22;70422;44.692;37.768;2023-06-19T05:33:03;27.83;35.42
75799;DHT22;70422;44.692;37.768;2023-06-19T05:34:05;27.83;35.80
75799;DHT22;70422;44.692;37.768;2023-06-19T05:35:07;27.84;36.21
75799;DHT22;70422;44.692;37.768;2023-06-19T05:36:09;27.84;36.41
75799;DHT22;70422;44.692;37.768;2023-06-19T05:37:11;27.85;36.45
75799;DHT22;70422;44.692;37.768;2023-06-19T05:38:13;27.85;36.16
75799;DHT22;70422;44.692;37.768;2023-06-19T05:39:15;27.86;36.40
75799;DHT22;70422;44.692;37.768;2023-06-19T05:40:16;27.87;36.02
75799;DHT22;70422;44.692;37.768;2023-06-19T05:41:18;27.87;36.05
75799;DHT22;70422;44.692;37.768;2023-06-19T05:42:20;27.87;36.04
75799;DHT22;70422;44.692;37.768;2023-06-19T05:43:22;27.89;35.93
75799;DHT22;70422;44.692;37.768;2023-06-19T05:44:26;27.90;36.02
75799;DHT22;70422;44.692;37.768;2023-06-19T05:45:28;27.93;35.89
75799;DHT22;70422;44.692;37.768;2023-06-19T05:46:30;27.91;35.71
75799;DHT22;70422;44.692;37.768;2023-06-19T05:47:33;27.91;36.34
75799;DHT22;70422;44.692;37.768;2023-06-19T05:48:35;27.91;36.24
75799;DHT22;70422;44.692;37.768;2023-06-19T05:49:36;27.93;36.39
75799;DHT22;70422;44.692;37.768;2023-06-19T05:50:38;27.93;36.34
75799;DHT22;70422;44.692;37.768;2023-06-19T05:51:40;27.94;36.67
75799;DHT22;70422;44.692;37.768;2023-06-19T05:52:41;27.95;36.82
75799;DHT22;70422;44.692;37.768;2023-06-19T05:53:44;27.95;36.92
75799;DHT22;70422;44.692;37.768;2023-06-19T05:54:47;27.96;37.05
75799;DHT22;70422;44.692;37.768;2023-06-19T05:55:49;27.99;38.21
75799;DHT22;70422;44.692;37.768;2023-06-19T05:56:52;28.01;39.50
75799;DHT22;70422;44.692;37.768;2023-06-19T05:57:55;28.04;40.42
75799;DHT22;70422;44.692;37.768;2023-06-19T05:58:57;28.05;39.97
75799;DHT22;70422;44.692;37.768;2023-06-19T05:59:58;28.06;39.42
75799;DHT22;70422;44.692;37.768;2023-06-19T06:01:00;28.06;38.92
75799;DHT22;70422;44.692;37.768;2023-06-19T06:02:02;28.08;38.88
75799;DHT22;70422;44.692;37.768;2023-06-19T06:03:04;28.08;38.65
75799;DHT22;70422;44.692;37.768;2023-06-19T06:04:24;28.10;38.77
75799;DHT22;70422;44.692;37.768;2023-06-19T06:06:05;28.09;38.69
75799;DHT22;70422;44.692;37.768;2023-06-19T06:07:07;28.06;38.33
75799;DHT22;70422;44.692;37.768;2023-06-19T06:08:28;28.05;37.75
75799;DHT22;70422;44.692;37.768;2023-06-19T06:09:30;28.04;37.27
75799;DHT22;70422;44.692;37.768;2023-06-19T06:10:31;28.03;37.08
75799;DHT22;70422;44.692;37.768;2023-06-19T06:11:33;28.02;36.70
75799;DHT22;70422;44.692;37.768;2023-06-19T06:12:35;28.02;36.36
75799;DHT22;70422;44.692;37.768;2023-06-19T06:13:36;28.01;36.19
75799;DHT22;70422;44.692;37.768;2023-06-19T06:14:40;28.00;36.05
75799;DHT22;70422;44.692;37.768;2023-06-19T06:15:42;28.00;35.60
75799;DHT22;70422;44.692;37.768;2023-06-19T06:16:44;28.01;35.13
75799;DHT22;70422;44.692;37.768;2023-06-19T06:17:45;27.99;35.01
75799;DHT22;70422;44.692;37.768;2023-06-19T06:18:48;27.98;34.86
75799;DHT22;70422;44.692;37.768;2023-06-19T06:19:49;27.98;34.56
75799;DHT22;70422;44.692;37.768;2023-06-19T06:20:51;27.96;34.41
75799;DHT22;70422;44.692;37.768;2023-06-19T06:21:53;27.95;34.37
75799;DHT22;70422;44.692;37.768;2023-06-19T06:22:55;27.93;34.29
75799;DHT22;70422;44.692;37.768;2023-06-19T06:23:56;27.93;34.28
75799;DHT22;70422;44.692;37.768;2023-06-19T06:24:58;27.93;33.99
75799;DHT22;70422;44.692;37.768;2023-06-19T06:26:00;27.93;33.77
75799;DHT22;70422;44.692;37.768;2023-06-19T06:27:05;27.91;33.54
75799;DHT22;70422;44.692;37.768;2023-06-19T06:28:08;27.91;33.73
75799;DHT22;70422;44.692;37.768;2023-06-19T06:29:09;27.91;33.73
75799;DHT22;70422;44.692;37.768;2023-06-19T06:30:12;27.91;33.79
75799;DHT22;70422;44.692;37.768;2023-06-19T06:31:15;27.90;33.61
75799;DHT22;70422;44.692;37.768;2023-06-19T06:32:16;27.90;33.57